Aviation Digital Data Service (ADDS)

Output produced by METARs form (1826 UTC 16 August 2018)
found at http://www.aviationweather.gov/adds/metars/
 
TAF LOXA 161115Z 1612/1621 VRB03KT 9999 FEW060 
     TEMPO 1612/1617 06007KT SCT060
       
LOWG 161820Z 18002KT CAVOK 22/14 Q1016 NOSIG
TAF LOWG 161715Z 1618/1718 VRB02KT CAVOK TX28/1713Z TN12/1704Z 
     TEMPO 1709/1716 15007KT
       
LOWI 161820Z VRB01KT 9999 FEW070 23/13 Q1015 NOSIG
TAF LOWI 161715Z 1618/1718 VRB02KT CAVOK TX29/1715Z TN15/1704Z 
     BECMG 1709/1711 09009KT 9999 FEW070 SCT100 
     PROB30 
     TEMPO 1715/1718 VRB15G25KT -TSRA FEW050CB SCT070
       
LOWK 161820Z AUTO 07004KT 050V110 9999 NSC 24/11 Q1016 NOSIG
TAF LOWK 161715Z 1618/1718 11004KT 9999 FEW060 TX29/1715Z TN14/1704Z 
     BECMG 1619/1621 VRB02KT CAVOK 
     TEMPO 1702/1705 32004KT MIFG NSC 
     BECMG 1706/1708 9999 FEW060 
     TEMPO 1712/1717 12008KT
       
LOWL 161820Z AUTO 09005KT 9999 NSC 24/11 Q1015 NOSIG
TAF LOWL 161715Z 1618/1718 10004KT CAVOK TX30/1714Z TN15/1704Z 
     TEMPO 1712/1718 33004KT 9999 FEW060
       
LOWS 161820Z 04007KT CAVOK 23/14 Q1015 NOSIG
TAF LOWS 161715Z 1618/1718 04006KT CAVOK TX29/1714Z TN16/1704Z 
     BECMG 1618/1620 15005KT 
     BECMG 1707/1709 34006KT 9999 FEW070 
     BECMG 1717/1718 15005KT CAVOK
       
LOWW 161820Z 34002KT CAVOK 24/12 Q1016 NOSIG
TAF LOWW 161715Z 1618/1724 VRB02KT CAVOK TX31/1714Z TN16/1702Z 
     BECMG 1707/1709 14007KT 
     TEMPO 1719/1724 VRB02KT
       
TAF LOXT 161115Z 1612/1621 VRB03KT 9999 FEW050 
     TEMPO 1612/1618 04005KT SCT060
       
LOAV 161800Z VRB02KT 35KM FEW100AC 26/09
TAF LOAV 161125Z 1612/1621 02008KT 9999 SCT050 
     BECMG 1615/1619 10005KT
       
LOAN 161800Z 10003KT 40KM FEW060CU
TAF LOAN 161125Z 1612/1621 02007KT 9999 SCT050 
     BECMG 1615/1619 09004KT
       
TAF LOXN 161115Z 1612/1621 05007KT 9999 SCT060
       
LOXZ 161750Z 14004KT 40KM FEW060CU 22/11 Q1018
TAF LOXZ 161115Z 1612/1621 VRB03KT 9999 FEW050 SCT080